createdAt,value
2019-05-12T00:00:08.068Z,5.2951
2019-05-12T00:00:22.948Z,3.6650
2019-05-12T00:00:28.729Z,3.8219
2019-05-12T00:00:39.273Z,4.2424
2019-05-12T00:00:48.373Z,5.9948
2019-05-12T00:00:58.603Z,6.1217
2019-05-12T00:01:09.390Z,5.3009
2019-05-12T00:01:18.852Z,4.8932
2019-05-12T00:01:28.576Z,4.5879
2019-05-12T00:01:38.992Z,5.0726
2019-05-12T00:01:48.100Z,4.9595
2019-05-12T00:01:58.710Z,5.1059
2019-05-12T00:02:07.709Z,4.7752
2019-05-12T00:02:18.381Z,5.8510
2019-05-12T00:02:28.751Z,5.7281
2019-05-12T00:02:39.671Z,5.7770
2019-05-12T00:02:48.650Z,5.5922
2019-05-12T00:02:59.310Z,4.1335
2019-05-12T00:03:08.484Z,5.1064
2019-05-12T00:03:19.417Z,6.0439
2019-05-12T00:03:27.719Z,6.1226
2019-05-12T00:03:39.297Z,5.3614
2019-05-12T00:03:49.399Z,4.6623
2019-05-12T00:03:58.387Z,6.1517
2019-05-12T00:04:09.399Z,5.9521
2019-05-12T00:04:18.938Z,5.0839
2019-05-12T00:04:29.378Z,4.9016
2019-05-12T00:04:38.485Z,5.2951
2019-05-12T00:04:48.920Z,5.7069
2019-05-12T00:04:58.251Z,4.8986
2019-05-12T00:05:08.872Z,5.0599
2019-05-12T00:05:18.471Z,4.7952
2019-05-12T00:05:28.382Z,4.8354
2019-05-12T00:05:38.322Z,5.5205
2019-05-12T00:05:48.400Z,5.7378
2019-05-12T00:05:57.846Z,5.7483
2019-05-12T00:06:08.742Z,6.9330
2019-05-12T00:06:17.771Z,7.0107
2019-05-12T00:06:30.401Z,5.2303
2019-05-12T00:06:38.752Z,5.3117
2019-05-12T00:06:48.398Z,4.8248
2019-05-12T00:06:58.524Z,4.5270
2019-05-12T00:07:08.812Z,4.1295
2019-05-12T00:07:18.160Z,3.6617
2019-05-12T00:07:28.652Z,3.8638
2019-05-12T00:07:38.495Z,4.4520
2019-05-12T00:07:48.930Z,5.1167
2019-05-12T00:07:58.949Z,5.3685
2019-05-12T00:08:09.954Z,5.4547
2019-05-12T00:08:18.875Z,4.7394
2019-05-12T00:08:27.868Z,5.4288
2019-05-12T00:08:39.396Z,6.3795
2019-05-12T00:08:49.353Z,6.0031
2019-05-12T00:09:00.954Z,6.0328
2019-05-12T00:09:08.562Z,5.5807
2019-05-12T00:09:21.389Z,4.3427
2019-05-12T00:09:28.247Z,4.2218
2019-05-12T00:09:40.354Z,5.0596
2019-05-12T00:09:48.031Z,5.1656
2019-05-12T00:09:58.401Z,5.1754
2019-05-12T00:10:08.621Z,4.9014
2019-05-12T00:10:18.396Z,4.3462
2019-05-12T00:10:28.273Z,4.6301
2019-05-12T00:10:38.864Z,4.8908
2019-05-12T00:10:47.845Z,4.4627
2019-05-12T00:10:58.401Z,5.0003
2019-05-12T00:11:08.968Z,5.5820
2019-05-12T00:11:18.390Z,6.9801
2019-05-12T00:11:28.792Z,8.2361
2019-05-12T00:11:38.397Z,8.1555
2019-05-12T00:11:48.472Z,6.6860
2019-05-12T00:11:59.036Z,6.4406
2019-05-12T00:12:08.265Z,6.8149
2019-05-12T00:12:18.551Z,6.3827
2019-05-12T00:12:27.849Z,6.4073
2019-05-12T00:12:38.682Z,5.7504
2019-05-12T00:12:48.347Z,5.5605
2019-05-12T00:12:58.328Z,6.7362
2019-05-12T00:13:08.307Z,7.0525
2019-05-12T00:13:19.043Z,5.1074
2019-05-12T00:13:27.914Z,4.7821
2019-05-12T00:13:38.642Z,5.6037
2019-05-12T00:13:48.561Z,5.8229
2019-05-12T00:13:58.575Z,6.9300
2019-05-12T00:14:08.616Z,6.8642
2019-05-12T00:14:18.386Z,6.7202
2019-05-12T00:14:28.424Z,7.0045
2019-05-12T00:14:38.129Z,6.7133
2019-05-12T00:14:50.391Z,5.6356
2019-05-12T00:14:58.981Z,5.4160
2019-05-12T00:15:09.396Z,5.3531
2019-05-12T00:15:19.165Z,5.3108
2019-05-12T00:15:30.916Z,5.8844
2019-05-12T00:15:38.452Z,6.1499
2019-05-12T00:15:50.211Z,5.2999
2019-05-12T00:15:58.360Z,4.0151
2019-05-12T00:16:08.889Z,3.7925
2019-05-12T00:16:17.698Z,4.1407
2019-05-12T00:16:28.531Z,4.4605
2019-05-12T00:16:38.351Z,5.1564
2019-05-12T00:16:49.080Z,5.2696
2019-05-12T00:16:58.055Z,5.2052
2019-05-12T00:17:08.391Z,6.8965
2019-05-12T00:17:18.792Z,9.1284
2019-05-12T00:17:28.512Z,9.0556
2019-05-12T00:17:38.755Z,7.0525
2019-05-12T00:17:48.674Z,6.3142
2019-05-12T00:17:58.703Z,5.4527
2019-05-12T00:18:09.119Z,4.9908
2019-05-12T00:18:19.031Z,5.0658
2019-05-12T00:18:28.594Z,5.0097
2019-05-12T00:18:37.870Z,4.7520
2019-05-12T00:18:48.295Z,4.9304
2019-05-12T00:18:58.570Z,6.1784
2019-05-12T00:19:09.237Z,5.4508
2019-05-12T00:19:18.837Z,5.8036
2019-05-12T00:19:28.687Z,6.0118
2019-05-12T00:19:37.821Z,6.2217
2019-05-12T00:19:48.405Z,5.3914
2019-05-12T00:19:58.459Z,5.0076
2019-05-12T00:20:08.718Z,5.2583
2019-05-12T00:20:18.070Z,5.5721
2019-05-12T00:20:28.616Z,5.4934
2019-05-12T00:20:39.404Z,5.0460
2019-05-12T00:20:48.404Z,6.2361
2019-05-12T00:20:59.375Z,6.4381
2019-05-12T00:21:08.818Z,5.7448
2019-05-12T00:21:19.397Z,6.1851
2019-05-12T00:21:28.308Z,6.1164
2019-05-12T00:21:39.903Z,7.1705
2019-05-12T00:21:48.294Z,7.8156
2019-05-12T00:21:58.859Z,7.3717
2019-05-12T00:22:07.722Z,7.6619
2019-05-12T00:22:18.383Z,9.1653
2019-05-12T00:22:28.681Z,8.5098
2019-05-12T00:22:38.398Z,7.0298
2019-05-12T00:22:48.670Z,5.8495
2019-05-12T00:22:58.418Z,5.1466
2019-05-12T00:23:23.137Z,4.8053
2019-05-12T00:23:26.660Z,6.1601
2019-05-12T00:23:30.427Z,6.8359
2019-05-12T00:23:38.380Z,6.8627
2019-05-12T00:23:47.730Z,7.5376
2019-05-12T00:23:58.226Z,6.6295
2019-05-12T00:24:09.055Z,8.5202
2019-05-12T00:24:18.796Z,8.0991
2019-05-12T00:24:28.012Z,6.6194
2019-05-12T00:24:38.420Z,5.7587
2019-05-12T00:24:47.897Z,5.5511
2019-05-12T00:24:58.429Z,5.6514
2019-05-12T00:25:08.789Z,6.0169
2019-05-12T00:25:18.525Z,5.8962
2019-05-12T00:25:28.452Z,6.1275
2019-05-12T00:25:38.871Z,5.7020
2019-05-12T00:25:48.002Z,5.5247
2019-05-12T00:25:58.732Z,5.0038
2019-05-12T00:26:08.363Z,5.2406
2019-05-12T00:26:18.708Z,4.3854
2019-05-12T00:26:30.175Z,5.3117
2019-05-12T00:26:38.402Z,5.4241
2019-05-12T00:26:49.388Z,5.4554
2019-05-12T00:27:02.128Z,5.9375
2019-05-12T00:27:09.405Z,5.8018
2019-05-12T00:27:19.056Z,6.0340
2019-05-12T00:27:28.507Z,6.7282
2019-05-12T00:27:38.748Z,6.2721
2019-05-12T00:27:48.873Z,6.4931
2019-05-12T00:27:58.598Z,6.1459
2019-05-12T00:28:08.418Z,5.4085
2019-05-12T00:28:17.909Z,6.0652
2019-05-12T00:28:28.549Z,6.6744
2019-05-12T00:28:37.674Z,7.3581
2019-05-12T00:28:48.947Z,6.2749
2019-05-12T00:28:58.793Z,6.3966
2019-05-12T00:29:08.415Z,6.8330
2019-05-12T00:29:18.485Z,6.1185
2019-05-12T00:29:28.795Z,6.0354
2019-05-12T00:29:37.825Z,6.0899
2019-05-12T00:29:50.943Z,5.8393
2019-05-12T00:29:57.840Z,6.1343
2019-05-12T00:30:09.909Z,6.8719
2019-05-12T00:30:18.526Z,6.4488
2019-05-12T00:30:27.853Z,5.9798
2019-05-12T00:30:38.792Z,5.9928
2019-05-12T00:30:48.784Z,5.5551
2019-05-12T00:30:58.084Z,7.0989
2019-05-12T00:31:08.481Z,6.7235
2019-05-12T00:31:18.834Z,6.5691
2019-05-12T00:31:28.071Z,6.0876
2019-05-12T00:31:38.295Z,5.9720
2019-05-12T00:31:47.894Z,6.4293
2019-05-12T00:31:58.432Z,6.7505
2019-05-12T00:32:08.624Z,5.5559
2019-05-12T00:32:17.965Z,5.3964
2019-05-12T00:32:28.384Z,4.5765
2019-05-12T00:32:39.399Z,6.7517
2019-05-12T00:32:48.404Z,6.8850
2019-05-12T00:33:00.191Z,5.9860
2019-05-12T00:33:09.245Z,5.6620
2019-05-12T00:33:19.387Z,5.6334
2019-05-12T00:33:28.226Z,5.9852
2019-05-12T00:33:39.383Z,6.0210
2019-05-12T00:33:48.043Z,6.2756
2019-05-12T00:33:58.775Z,5.9511
2019-05-12T00:34:07.797Z,5.9531
2019-05-12T00:34:18.611Z,5.8278
2019-05-12T00:34:28.931Z,6.0988
2019-05-12T00:34:38.588Z,6.8620
2019-05-12T00:34:48.068Z,6.3416
2019-05-12T00:34:58.567Z,5.3209
2019-05-12T00:35:08.045Z,5.7367
2019-05-12T00:35:18.416Z,6.2816
2019-05-12T00:35:28.494Z,6.0308
2019-05-12T00:35:38.406Z,5.8780
2019-05-12T00:35:48.329Z,5.2003
2019-05-12T00:35:58.726Z,6.1126
2019-05-12T00:36:07.998Z,6.1298
2019-05-12T00:36:18.627Z,6.8828
2019-05-12T00:36:29.218Z,6.6518
2019-05-12T00:36:39.594Z,6.1705
2019-05-12T00:36:48.503Z,6.9763
2019-05-12T00:36:58.384Z,6.7562
2019-05-12T00:37:09.374Z,6.6489
2019-05-12T00:37:18.666Z,6.9272
2019-05-12T00:37:28.875Z,6.1610
2019-05-12T00:37:38.136Z,6.2713
2019-05-12T00:37:48.622Z,6.2596
2019-05-12T00:37:58.403Z,6.6305
2019-05-12T00:38:08.979Z,6.7656
2019-05-12T00:38:18.394Z,7.6015
2019-05-12T00:38:29.376Z,8.1314
2019-05-12T00:38:39.377Z,7.3237
2019-05-12T00:38:49.391Z,5.5585
2019-05-12T00:38:57.996Z,5.7288
2019-05-12T00:39:10.384Z,6.0155
2019-05-12T00:39:19.072Z,4.9772
2019-05-12T00:39:28.410Z,5.7890
2019-05-12T00:39:38.266Z,6.0622
2019-05-12T00:39:48.391Z,5.0256
2019-05-12T00:39:58.271Z,6.5517
2019-05-12T00:40:08.969Z,6.9389
2019-05-12T00:40:19.116Z,7.3556
2019-05-12T00:40:28.399Z,7.0486
2019-05-12T00:40:39.113Z,6.7302
2019-05-12T00:40:48.397Z,6.0280
2019-05-12T00:40:58.334Z,5.0520
2019-05-12T00:41:08.870Z,5.9570
2019-05-12T00:41:18.148Z,6.3011
2019-05-12T00:41:28.506Z,5.3472
2019-05-12T00:41:38.939Z,5.0304
2019-05-12T00:41:48.173Z,4.7403
2019-05-12T00:41:59.400Z,5.1382
2019-05-12T00:42:08.392Z,4.7643
2019-05-12T00:42:20.903Z,5.0898
2019-05-12T00:42:28.814Z,5.3262
2019-05-12T00:42:38.145Z,6.1347
2019-05-12T00:42:49.309Z,5.5930
2019-05-12T00:42:59.428Z,5.9379
2019-05-12T00:43:08.887Z,5.0028
2019-05-12T00:43:19.389Z,4.9153
2019-05-12T00:43:28.129Z,5.2621
2019-05-12T00:43:42.958Z,6.5243
2019-05-12T00:43:48.726Z,6.8719
2019-05-12T00:43:58.393Z,7.3502
2019-05-12T00:44:08.826Z,6.8447
2019-05-12T00:44:18.351Z,5.9683
2019-05-12T00:44:28.463Z,5.6012
2019-05-12T00:44:39.072Z,5.3143
2019-05-12T00:44:47.895Z,5.1549
2019-05-12T00:44:58.641Z,6.0160
2019-05-12T00:45:08.063Z,5.8435
2019-05-12T00:45:18.398Z,5.0901
2019-05-12T00:45:29.207Z,4.8580
2019-05-12T00:45:38.787Z,4.4695
2019-05-12T00:45:48.202Z,5.0913
2019-05-12T00:45:58.777Z,4.6873
2019-05-12T00:46:07.918Z,3.9982
2019-05-12T00:46:18.402Z,4.9239
2019-05-12T00:46:28.887Z,5.0172
2019-05-12T00:46:39.870Z,5.1980
2019-05-12T00:46:49.419Z,5.3147
2019-05-12T00:46:58.384Z,5.9148
2019-05-12T00:47:08.541Z,5.7151
2019-05-12T00:47:18.771Z,5.5245
2019-05-12T00:47:28.043Z,5.7789
2019-05-12T00:47:39.020Z,5.4980
2019-05-12T00:47:48.108Z,5.8424
2019-05-12T00:47:59.357Z,5.3116
2019-05-12T00:48:09.726Z,5.8507
2019-05-12T00:48:18.391Z,6.3135
2019-05-12T00:48:30.298Z,5.9594
2019-05-12T00:48:38.394Z,4.8150
2019-05-12T00:48:49.415Z,4.0112
2019-05-12T00:48:58.510Z,4.3390
2019-05-12T00:49:10.381Z,4.7247
2019-05-12T00:49:18.672Z,5.2654
2019-05-12T00:49:29.076Z,6.1459
2019-05-12T00:49:37.883Z,6.7398
2019-05-12T00:49:49.528Z,5.3135
2019-05-12T00:49:58.343Z,4.2766
2019-05-12T00:50:08.391Z,4.9743
2019-05-12T00:50:18.415Z,5.8137
2019-05-12T00:50:30.912Z,4.4307
2019-05-12T00:50:38.204Z,4.5616
2019-05-12T00:50:48.696Z,4.7916
2019-05-12T00:50:58.377Z,4.7469
2019-05-12T00:51:08.417Z,5.6969
2019-05-12T00:51:18.110Z,6.5191
2019-05-12T00:51:28.983Z,5.4363
2019-05-12T00:51:38.417Z,5.2667
2019-05-12T00:51:48.598Z,5.4382
2019-05-12T00:51:58.705Z,4.6887
2019-05-12T00:52:08.434Z,4.2568
2019-05-12T00:52:18.679Z,5.0931
2019-05-12T00:52:28.149Z,4.6312
2019-05-12T00:52:38.745Z,4.7899
2019-05-12T00:52:49.640Z,4.6933
2019-05-12T00:52:58.018Z,5.2511
2019-05-12T00:53:09.674Z,4.6860
2019-05-12T00:53:20.347Z,5.1724
2019-05-12T00:53:37.115Z,6.2048
2019-05-12T00:53:43.232Z,7.5531
2019-05-12T00:53:47.945Z,7.3558
2019-05-12T00:54:00.354Z,7.1077
2019-05-12T00:54:09.913Z,6.3832
2019-05-12T00:54:18.400Z,5.4530
2019-05-12T00:54:28.448Z,5.6722
2019-05-12T00:54:38.399Z,5.1469
2019-05-12T00:54:48.319Z,5.3928
2019-05-12T00:54:58.696Z,5.4618
2019-05-12T00:55:08.106Z,5.0214
2019-05-12T00:55:18.527Z,5.5946
2019-05-12T00:55:28.999Z,5.5094
2019-05-12T00:55:38.589Z,4.6269
2019-05-12T00:55:47.726Z,4.2976
2019-05-12T00:55:58.389Z,4.0805
2019-05-12T00:56:09.402Z,4.7871
2019-05-12T00:56:18.379Z,5.1480
2019-05-12T00:56:28.384Z,5.8141
2019-05-12T00:56:39.143Z,5.4701
2019-05-12T00:56:48.180Z,4.6119
2019-05-12T00:56:58.555Z,4.0999
2019-05-12T00:57:07.835Z,4.0006
2019-05-12T00:57:18.383Z,4.8168
2019-05-12T00:57:28.662Z,4.8371
2019-05-12T00:57:38.239Z,4.7576
2019-05-12T00:57:50.939Z,4.5556
2019-05-12T00:57:58.349Z,4.8575
2019-05-12T00:58:08.335Z,4.9927
2019-05-12T00:58:19.816Z,5.0474
2019-05-12T00:58:28.270Z,6.6903
2019-05-12T00:58:38.409Z,7.2582
2019-05-12T00:58:48.750Z,6.2635
2019-05-12T00:58:58.386Z,4.7176
2019-05-12T00:59:10.446Z,3.2680
2019-05-12T00:59:19.083Z,3.3970
2019-05-12T00:59:30.313Z,4.1986
2019-05-12T00:59:38.259Z,5.1747
2019-05-12T00:59:49.387Z,5.7772
2019-05-12T00:59:58.219Z,6.0788
2019-05-12T01:00:09.371Z,4.4980
2019-05-12T01:00:17.843Z,4.8108
2019-05-12T01:00:29.661Z,3.6713
2019-05-12T01:00:40.572Z,3.3577
2019-05-12T01:00:48.414Z,3.4377
2019-05-12T01:00:59.624Z,4.2429
2019-05-12T01:01:08.403Z,4.9830
2019-05-12T01:01:18.376Z,4.7975
2019-05-12T01:01:28.720Z,4.8439
2019-05-12T01:01:38.102Z,5.0815
2019-05-12T01:01:48.409Z,5.1173
2019-05-12T01:01:58.606Z,5.0727
2019-05-12T01:02:08.385Z,5.4263
2019-05-12T01:02:18.312Z,6.1985
2019-05-12T01:02:28.768Z,6.7689
2019-05-12T01:02:38.025Z,5.6925
2019-05-12T01:02:48.642Z,5.8425
2019-05-12T01:02:58.290Z,5.2709
2019-05-12T01:03:08.787Z,4.6429
2019-05-12T01:03:18.830Z,4.0016
2019-05-12T01:03:28.409Z,3.8800
2019-05-12T01:03:38.215Z,4.2544
2019-05-12T01:03:48.465Z,4.3601
2019-05-12T01:03:59.406Z,4.5238
2019-05-12T01:04:08.987Z,5.4957
2019-05-12T01:04:17.678Z,5.0485
2019-05-12T01:04:29.139Z,4.2714
2019-05-12T01:04:38.150Z,4.5269
2019-05-12T01:04:48.814Z,4.5144
2019-05-12T01:04:58.127Z,4.3622
2019-05-12T01:05:08.738Z,5.0024
2019-05-12T01:05:17.782Z,5.4821
2019-05-12T01:05:29.426Z,5.7673
2019-05-12T01:05:38.327Z,4.8343
2019-05-12T01:05:48.675Z,4.1337
2019-05-12T01:05:57.751Z,4.5814
2019-05-12T01:06:08.533Z,5.7146
2019-05-12T01:06:20.402Z,5.0821
2019-05-12T01:06:28.458Z,5.1155
2019-05-12T01:06:39.385Z,5.1712
2019-05-12T01:06:51.911Z,4.8840
2019-05-12T01:07:00.371Z,4.9777
2019-05-12T01:07:08.673Z,4.8756
2019-05-12T01:07:20.302Z,4.3185
2019-05-12T01:07:27.828Z,3.9328
2019-05-12T01:07:38.411Z,4.0692
2019-05-12T01:07:48.189Z,4.2721
2019-05-12T01:07:58.625Z,4.1131
2019-05-12T01:08:08.886Z,5.2128
2019-05-12T01:08:18.812Z,5.5588
2019-05-12T01:08:28.031Z,4.5917
2019-05-12T01:08:38.477Z,4.1717
2019-05-12T01:08:48.346Z,4.1931
2019-05-12T01:08:58.402Z,4.5460
2019-05-12T01:09:08.778Z,4.3769
2019-05-12T01:09:18.387Z,4.6969
2019-05-12T01:09:28.169Z,5.4433
2019-05-12T01:09:38.614Z,5.7308
2019-05-12T01:09:49.130Z,5.9594
2019-05-12T01:10:00.905Z,5.5585
2019-05-12T01:10:08.735Z,5.8591
2019-05-12T01:10:18.384Z,4.7309
2019-05-12T01:10:28.627Z,3.5898
2019-05-12T01:10:39.142Z,3.5477
2019-05-12T01:10:47.880Z,4.0056
2019-05-12T01:10:58.321Z,4.1278
2019-05-12T01:11:08.791Z,4.2636
2019-05-12T01:11:18.404Z,5.3842
2019-05-12T01:11:28.595Z,4.7706
2019-05-12T01:11:39.579Z,4.6919
2019-05-12T01:11:48.636Z,4.6590
2019-05-12T01:11:58.908Z,4.5045
2019-05-12T01:12:09.383Z,5.5328
2019-05-12T01:12:18.410Z,5.8357
2019-05-12T01:12:30.270Z,4.5197
2019-05-12T01:12:38.453Z,4.8718
2019-05-12T01:12:49.427Z,4.9949
2019-05-12T01:12:58.105Z,4.8410
2019-05-12T01:13:10.299Z,5.0556
2019-05-12T01:13:18.671Z,4.6578
2019-05-12T01:13:30.381Z,4.2537
2019-05-12T01:13:38.239Z,4.0776
2019-05-12T01:13:48.624Z,4.0406
2019-05-12T01:13:58.276Z,3.9038
2019-05-12T01:14:08.771Z,4.6547
2019-05-12T01:14:18.678Z,5.1173
2019-05-12T01:14:28.390Z,6.1139
2019-05-12T01:14:38.343Z,5.7104
2019-05-12T01:14:48.388Z,5.5880
2019-05-12T01:14:58.541Z,5.0520
2019-05-12T01:15:10.870Z,4.0883
2019-05-12T01:15:17.782Z,4.0423
2019-05-12T01:15:28.773Z,4.8225
2019-05-12T01:15:37.952Z,6.2319
2019-05-12T01:15:48.389Z,6.1749
2019-05-12T01:15:58.683Z,5.0684
2019-05-12T01:16:08.375Z,4.4182
2019-05-12T01:16:18.422Z,4.0547
2019-05-12T01:16:28.975Z,4.8785
2019-05-12T01:16:38.507Z,5.1319
2019-05-12T01:16:48.679Z,5.0392
2019-05-12T01:16:57.876Z,5.7117
2019-05-12T01:17:08.548Z,5.0536
2019-05-12T01:17:17.827Z,3.9522
2019-05-12T01:17:28.281Z,3.1834
2019-05-12T01:17:40.390Z,3.9159
2019-05-12T01:17:49.290Z,4.7480
2019-05-12T01:17:58.542Z,5.0671
2019-05-12T01:18:11.969Z,5.5028
2019-05-12T01:18:19.398Z,6.1379
2019-05-12T01:18:28.409Z,5.5917
2019-05-12T01:18:39.389Z,5.2872
2019-05-12T01:18:48.002Z,4.9802
2019-05-12T01:18:59.383Z,4.8599
2019-05-12T01:19:07.930Z,5.2130
2019-05-12T01:19:19.408Z,4.9902
2019-05-12T01:19:28.785Z,4.0689
2019-05-12T01:19:40.499Z,4.0098
2019-05-12T01:19:48.610Z,4.0526
2019-05-12T01:19:58.535Z,3.8578
2019-05-12T01:20:08.888Z,3.6858
2019-05-12T01:20:18.405Z,3.8952
2019-05-12T01:20:28.445Z,5.6266
2019-05-12T01:20:39.152Z,5.6422
2019-05-12T01:20:47.943Z,4.9868
2019-05-12T01:20:58.482Z,4.6112
2019-05-12T01:21:07.847Z,4.5425
2019-05-12T01:21:20.936Z,4.3334
2019-05-12T01:21:28.758Z,4.0561
2019-05-12T01:21:38.388Z,4.4027
2019-05-12T01:21:48.122Z,5.3875
2019-05-12T01:21:58.812Z,5.3248
2019-05-12T01:22:08.080Z,5.5540
2019-05-12T01:22:18.742Z,4.7265
2019-05-12T01:22:27.779Z,4.9067
2019-05-12T01:22:38.518Z,5.4615
2019-05-12T01:22:50.388Z,5.0274
2019-05-12T01:22:58.400Z,4.0581
2019-05-12T01:23:08.518Z,5.9378
2019-05-12T01:23:19.973Z,6.1309
2019-05-12T01:23:28.132Z,5.5892
2019-05-12T01:23:53.390Z,4.6757
2019-05-12T01:23:56.437Z,4.2503
2019-05-12T01:24:03.294Z,4.5027
2019-05-12T01:24:12.882Z,5.2013
2019-05-12T01:24:18.878Z,5.4640
2019-05-12T01:24:28.163Z,4.9095
2019-05-12T01:24:38.478Z,4.1459
2019-05-12T01:24:48.468Z,5.1282
2019-05-12T01:24:58.409Z,5.2495
2019-05-12T01:25:08.626Z,4.2884
2019-05-12T01:25:18.421Z,4.4227
2019-05-12T01:25:29.407Z,4.0704
2019-05-12T01:25:39.728Z,4.0377
2019-05-12T01:25:50.829Z,4.0431
2019-05-12T01:25:58.569Z,3.8585
2019-05-12T01:26:09.394Z,3.6989
2019-05-12T01:26:17.943Z,3.8082
2019-05-12T01:26:30.517Z,3.1995
2019-05-12T01:26:38.807Z,3.7811
2019-05-12T01:26:50.303Z,4.1858
2019-05-12T01:26:58.231Z,3.6664
2019-05-12T01:27:12.942Z,4.0228
2019-05-12T01:27:18.089Z,4.2195
2019-05-12T01:27:28.920Z,5.1078
2019-05-12T01:27:38.070Z,5.0317
2019-05-12T01:27:48.415Z,4.0610
2019-05-12T01:27:58.882Z,4.5546
2019-05-12T01:28:08.468Z,4.2140
2019-05-12T01:28:18.372Z,3.3150
2019-05-12T01:28:28.387Z,2.9388
2019-05-12T01:28:38.261Z,2.8439
2019-05-12T01:28:48.912Z,4.8576
2019-05-12T01:28:58.067Z,5.1865
2019-05-12T01:29:08.637Z,5.5019
2019-05-12T01:29:17.758Z,5.2957
2019-05-12T01:29:28.390Z,4.2869
2019-05-12T01:29:38.545Z,3.7860
2019-05-12T01:29:48.395Z,4.7717
2019-05-12T01:29:58.088Z,5.2599
2019-05-12T01:30:08.902Z,5.6889
2019-05-12T01:30:18.063Z,5.7830
2019-05-12T01:30:28.712Z,5.4453
2019-05-12T01:30:39.105Z,5.3042
2019-05-12T01:30:48.054Z,4.2504
2019-05-12T01:30:58.183Z,4.6471
2019-05-12T01:31:08.600Z,3.8208
2019-05-12T01:31:18.811Z,3.2587
2019-05-12T01:31:28.609Z,3.7630
2019-05-12T01:31:38.381Z,4.0505
2019-05-12T01:31:48.611Z,3.5471
2019-05-12T01:31:58.574Z,3.9242
2019-05-12T01:32:09.343Z,5.7259
2019-05-12T01:32:18.279Z,7.8479
2019-05-12T01:32:31.963Z,5.7887
2019-05-12T01:32:39.402Z,6.1063
2019-05-12T01:32:49.269Z,5.6873
2019-05-12T01:32:58.320Z,5.2575
2019-05-12T01:33:08.575Z,5.5803
2019-05-12T01:33:19.391Z,4.6004
2019-05-12T01:33:27.751Z,4.3169
2019-05-12T01:33:39.384Z,3.9404
2019-05-12T01:33:48.596Z,3.8068
2019-05-12T01:33:58.601Z,4.2676
2019-05-12T01:34:08.113Z,4.6687
2019-05-12T01:34:18.425Z,4.6985
2019-05-12T01:34:27.879Z,4.7027
2019-05-12T01:34:38.396Z,4.8626
2019-05-12T01:34:48.646Z,4.3089
2019-05-12T01:34:58.382Z,6.1989
2019-05-12T01:35:08.060Z,5.7860
2019-05-12T01:35:18.570Z,5.8025
2019-05-12T01:35:28.181Z,5.3560
2019-05-12T01:35:38.974Z,4.8433
2019-05-12T01:35:48.253Z,5.2605
2019-05-12T01:35:58.769Z,4.8099
2019-05-12T01:36:07.940Z,3.9696
2019-05-12T01:36:18.395Z,4.5204
2019-05-12T01:36:28.698Z,3.8519
2019-05-12T01:36:38.411Z,3.0136
2019-05-12T01:36:48.446Z,3.6673
2019-05-12T01:36:58.549Z,4.1092
2019-05-12T01:37:09.882Z,4.5822
2019-05-12T01:37:18.531Z,6.1028
2019-05-12T01:37:28.824Z,5.8122
2019-05-12T01:37:38.383Z,5.6014
2019-05-12T01:37:48.427Z,6.5603
2019-05-12T01:38:01.457Z,6.3948
2019-05-12T01:38:07.968Z,5.6584
2019-05-12T01:38:18.428Z,6.5888
2019-05-12T01:38:28.719Z,6.2874
2019-05-12T01:38:38.383Z,5.4525
2019-05-12T01:38:48.395Z,5.1148
2019-05-12T01:39:01.579Z,3.8310
2019-05-12T01:39:09.387Z,3.1210
2019-05-12T01:39:19.304Z,3.7073
2019-05-12T01:39:28.964Z,4.9161
2019-05-12T01:39:38.415Z,4.9980
2019-05-12T01:39:49.232Z,5.6035
2019-05-12T01:39:59.893Z,5.7714
2019-05-12T01:40:10.642Z,5.5862
2019-05-12T01:40:19.085Z,5.3754
2019-05-12T01:40:30.462Z,4.5310
2019-05-12T01:40:39.435Z,4.5884
2019-05-12T01:40:48.384Z,4.5725
2019-05-12T01:40:58.411Z,4.0858
2019-05-12T01:41:08.820Z,4.5455
2019-05-12T01:41:17.993Z,4.0951
2019-05-12T01:41:28.759Z,3.8822
2019-05-12T01:41:38.910Z,4.5192
2019-05-12T01:41:48.401Z,4.9583
2019-05-12T01:41:58.715Z,5.0225
2019-05-12T01:42:09.128Z,5.3754
2019-05-12T01:42:18.033Z,4.6774
2019-05-12T01:42:28.800Z,3.5283
2019-05-12T01:42:38.254Z,4.4067
2019-05-12T01:42:48.481Z,4.9722
2019-05-12T01:42:58.146Z,5.0206
2019-05-12T01:43:08.543Z,5.2122
2019-05-12T01:43:18.699Z,5.3378
2019-05-12T01:43:28.398Z,4.5796
2019-05-12T01:43:38.224Z,3.7231
2019-05-12T01:43:48.807Z,3.6580
2019-05-12T01:43:58.464Z,4.7358
2019-05-12T01:44:08.789Z,4.6258
2019-05-12T01:44:18.365Z,3.7947
2019-05-12T01:44:28.747Z,4.1132
2019-05-12T01:44:38.318Z,4.6792
2019-05-12T01:44:49.678Z,4.5821
2019-05-12T01:44:59.928Z,4.1521
2019-05-12T01:45:09.241Z,3.6431
2019-05-12T01:45:20.308Z,3.3901
2019-05-12T01:45:29.023Z,3.4844
2019-05-12T01:45:39.410Z,4.1269
2019-05-12T01:45:48.298Z,3.8694
2019-05-12T01:46:00.516Z,4.1418
2019-05-12T01:46:08.025Z,3.6546
2019-05-12T01:46:18.400Z,3.2469
2019-05-12T01:46:31.942Z,4.7296
2019-05-12T01:46:38.529Z,5.6133
2019-05-12T01:46:48.418Z,5.5954
2019-05-12T01:46:58.379Z,5.3931
2019-05-12T01:47:10.942Z,5.1023
2019-05-12T01:47:18.841Z,5.0050
2019-05-12T01:47:29.107Z,4.1152
2019-05-12T01:47:42.949Z,4.8462
2019-05-12T01:47:48.559Z,4.6366
2019-05-12T01:47:59.423Z,5.0641
2019-05-12T01:48:08.863Z,4.3488
2019-05-12T01:48:18.579Z,3.4807
2019-05-12T01:48:28.700Z,3.2961
2019-05-12T01:48:38.391Z,4.3939
2019-05-12T01:48:48.434Z,4.9789
2019-05-12T01:48:59.098Z,5.0953
2019-05-12T01:49:08.217Z,4.5122
2019-05-12T01:49:18.800Z,6.0573
2019-05-12T01:49:28.979Z,5.9288
2019-05-12T01:49:38.405Z,5.0948
2019-05-12T01:49:48.816Z,5.1672
2019-05-12T01:49:58.428Z,5.3370
2019-05-12T01:50:09.167Z,5.6293
2019-05-12T01:50:17.881Z,5.3575
2019-05-12T01:50:28.640Z,5.5424
2019-05-12T01:50:38.970Z,4.5283
2019-05-12T01:50:47.638Z,3.9605
2019-05-12T01:50:59.439Z,3.6189
2019-05-12T01:51:08.388Z,3.5037
2019-05-12T01:51:18.390Z,4.8164
2019-05-12T01:51:29.380Z,5.3686
2019-05-12T01:51:39.532Z,5.3176
2019-05-12T01:51:48.387Z,4.6173
2019-05-12T01:51:58.378Z,4.1730
2019-05-12T01:52:09.370Z,4.9182
2019-05-12T01:52:17.869Z,4.6700
2019-05-12T01:52:29.406Z,4.4549
2019-05-12T01:52:38.587Z,4.8247
2019-05-12T01:52:48.416Z,4.6831
2019-05-12T01:52:59.151Z,5.3059
2019-05-12T01:53:08.701Z,5.1138
2019-05-12T01:53:18.117Z,5.5518
2019-05-12T01:53:28.768Z,5.0795
2019-05-12T01:53:37.941Z,4.7680
2019-05-12T01:53:48.406Z,4.7797
2019-05-12T01:54:10.962Z,3.7683
2019-05-12T01:54:13.761Z,3.9121
2019-05-12T01:54:18.876Z,4.3058
2019-05-12T01:54:28.394Z,3.9528
2019-05-12T01:54:39.900Z,4.6547
2019-05-12T01:54:48.514Z,5.4473
2019-05-12T01:54:59.011Z,5.2309
2019-05-12T01:55:08.506Z,4.6696
2019-05-12T01:55:18.575Z,4.2984
2019-05-12T01:55:28.469Z,4.8724
2019-05-12T01:55:42.182Z,3.6503
2019-05-12T01:55:48.627Z,3.4911
2019-05-12T01:55:58.516Z,4.0825
2019-05-12T01:56:08.398Z,5.1497
2019-05-12T01:56:18.194Z,5.7260
2019-05-12T01:56:28.796Z,4.9855
2019-05-12T01:56:38.284Z,4.0064
2019-05-12T01:56:48.469Z,4.1665
2019-05-12T01:56:58.659Z,4.3978
2019-05-12T01:57:08.397Z,4.0960
2019-05-12T01:57:18.864Z,5.0600
2019-05-12T01:57:28.883Z,5.5159
2019-05-12T01:57:38.681Z,4.8968
2019-05-12T01:57:48.657Z,3.7674
2019-05-12T01:57:57.951Z,3.6868
2019-05-12T01:58:08.733Z,3.5156
2019-05-12T01:58:19.700Z,3.8869
2019-05-12T01:58:28.412Z,3.9991
2019-05-12T01:58:38.158Z,4.3864
2019-05-12T01:58:48.507Z,4.0587
2019-05-12T01:58:59.392Z,3.6054
2019-05-12T01:59:08.141Z,4.3582
2019-05-12T01:59:19.387Z,4.6800
2019-05-12T01:59:28.743Z,4.1407
2019-05-12T01:59:38.373Z,4.3145
2019-05-12T01:59:48.415Z,4.1815
2019-05-12T01:59:58.687Z,4.1901
2019-05-12T02:00:08.075Z,3.9148
2019-05-12T02:00:18.404Z,4.9405
2019-05-12T02:00:28.924Z,5.1550
2019-05-12T02:00:39.137Z,4.9208
2019-05-12T02:00:48.291Z,4.8553
2019-05-12T02:00:58.963Z,4.0057
2019-05-12T02:01:08.218Z,3.4379
2019-05-12T02:01:18.554Z,2.9888
2019-05-12T02:01:28.110Z,3.1376
2019-05-12T02:01:38.899Z,4.1654
2019-05-12T02:01:48.825Z,4.7015
2019-05-12T02:01:58.436Z,4.2195
2019-05-12T02:02:08.613Z,4.5270
2019-05-12T02:02:18.398Z,4.4700
2019-05-12T02:02:28.553Z,4.1084
2019-05-12T02:02:38.675Z,3.7767
2019-05-12T02:02:48.047Z,3.4901
2019-05-12T02:02:58.543Z,4.1426
2019-05-12T02:03:08.966Z,4.0718
2019-05-12T02:03:18.395Z,5.2377
2019-05-12T02:03:28.372Z,5.1160
2019-05-12T02:03:38.396Z,3.5443
2019-05-12T02:03:48.374Z,2.8091
2019-05-12T02:03:58.621Z,2.7314
2019-05-12T02:04:07.839Z,2.5536
2019-05-12T02:04:19.289Z,2.6214
2019-05-12T02:04:28.477Z,2.7264
2019-05-12T02:04:38.380Z,3.3313
2019-05-12T02:04:48.373Z,3.5410